Muscle Shoals, AL (35661)

7:28 PM CDT on August 29, 2015 (GMT -0500)
Jackson Heights | | Change Station
CLOSE
Current Station
Personal Weather Station
Location: Muscle Shoals, AL
Elevation: 525 ft
Nearby Weather Stations

Elev 525 ft 34.75 °N, 87.64 °W | Updated 11 seconds ago

Clear
Clear
73.8 °F
Feels Like 74 °F
N
0.0
Wind Variable Wind from South
Gusts 2.7 mph

Today
High -- | Low -- °F
--% Chance of Precip.
Yesterday
High -- | Low -- °F
Precip. -- in
6:21 AM 7:21 PM
Full, 100% visible
Pressure 30.07 in
Visibility 10.0 miles
Clouds Clear
Heat Index 74 °F
Dew Point 66 °F
Humidity 78%
Rainfall 0.24 in
Snow Depth Not available.
UV 0 out of 12
Pollen 9.20 out of 12
Air Quality Not available.
Flu Activity Not available.
METAR KMSL 292353Z AUTO 13007KT 10SM CLR 23/19 A3008 RMK AO2 SLP181 60000 T02330194 10283 20228 50001
Pressure 30.07 in
Visibility 10.0 miles
Clouds Clear
Heat Index 74 °F
Dew Point 66 °F
Humidity 78%
Rainfall 0.24 in
Snow Depth Not available.
UV 0 out of 12
Pollen 9.20 out of 12
Air Quality Not available.
Flu Activity Not available.
METAR KMSL 292353Z AUTO 13007KT 10SM CLR 23/19 A3008 RMK AO2 SLP181 60000 T02330194 10283 20228 50001

10-Day Weather Forecast

×

Almanac

Astronomy

Aug. 29, 2015 Rise Set
Actual Time
Civil Twilight
Nautical Twilight
Astronomical Twilight
Moon
Length of Visible Light
Length of Day
Tomorrow will be .
, % of the Moon is Illuminated

Today's Extremes

State Highs State Lows

Community

WunderPhotos

Upload Photos

1,850,794 photos uploaded!

WunderBlogs® & News

Nearby

Air Quality

  Air Quality AQ Index Pollutant
Not available.

Snow Depth

Station Depth Elevation

Earthquake Activity

City Distance Mag. Time & Date
Minimum magnitude displayed is 2.5.

Coastal Water Temperatures

Place Temperature

Stations

Nearby Weather Stations

Station Location Temp. Windchill Dew Point Humidity Wind Precip. Elev Updated Type